createdAt,value
2023-05-14T00:00:22.344Z,11.53
2023-05-14T00:02:49.221Z,11.54
2023-05-14T00:05:15.870Z,11.53
2023-05-14T00:07:42.312Z,11.54
2023-05-14T00:10:09.205Z,11.51
2023-05-14T00:12:35.677Z,11.50
2023-05-14T00:15:02.518Z,11.47
2023-05-14T00:17:29.068Z,11.51
2023-05-14T00:19:55.616Z,11.49
2023-05-14T00:22:22.151Z,11.48
2023-05-14T00:24:48.644Z,11.44
2023-05-14T00:27:15.068Z,11.43
2023-05-14T00:29:41.552Z,11.40
2023-05-14T00:32:08.261Z,11.39
2023-05-14T00:34:35.067Z,11.38
2023-05-14T00:37:01.879Z,11.39
2023-05-14T00:39:28.338Z,11.40
2023-05-14T00:41:54.744Z,11.38
2023-05-14T00:44:21.225Z,11.37
2023-05-14T00:46:47.927Z,11.38
2023-05-14T00:49:15.239Z,11.40
2023-05-14T00:51:42.213Z,11.40
2023-05-14T00:54:09.265Z,11.41
2023-05-14T00:56:35.924Z,11.40
2023-05-14T00:59:02.437Z,11.41
2023-05-14T01:01:29.037Z,11.42
2023-05-14T01:03:57.865Z,11.41
2023-05-14T01:06:33.235Z,11.40
2023-05-14T01:09:12.781Z,11.39
2023-05-14T01:12:01.028Z,11.36
2023-05-14T01:14:31.886Z,11.37
2023-05-14T01:17:00.058Z,11.36
2023-05-14T01:19:39.711Z,11.36
2023-05-14T01:22:06.583Z,11.37
2023-05-14T01:24:33.099Z,11.37
2023-05-14T01:27:23.878Z,11.39
2023-05-14T01:30:08.194Z,11.40
2023-05-14T01:32:36.026Z,11.40
2023-05-14T01:35:03.963Z,11.41
2023-05-14T01:37:32.410Z,11.41
2023-05-14T01:40:00.623Z,11.40
2023-05-14T01:42:28.552Z,11.31
2023-05-14T01:44:55.864Z,11.40
2023-05-14T01:47:22.669Z,11.41
2023-05-14T01:49:49.311Z,11.38
2023-05-14T01:52:16.494Z,11.38
2023-05-14T01:54:43.149Z,11.37
2023-05-14T01:57:09.609Z,11.36
2023-05-14T01:59:36.253Z,11.37
2023-05-14T02:02:02.776Z,11.38
2023-05-14T02:04:29.347Z,11.35
2023-05-14T02:06:56.054Z,11.34
2023-05-14T02:09:24.504Z,11.35
2023-05-14T02:11:50.943Z,11.35
2023-05-14T02:14:17.441Z,11.34
2023-05-14T02:16:44.229Z,11.31
2023-05-14T02:19:11.177Z,11.28
2023-05-14T02:21:37.646Z,11.25
2023-05-14T02:24:04.281Z,11.25
2023-05-14T02:26:30.724Z,11.24
2023-05-14T02:28:57.281Z,11.27
2023-05-14T02:31:24.331Z,11.26
2023-05-14T02:33:51.654Z,11.23
2023-05-14T02:36:18.657Z,11.25
2023-05-14T02:38:45.271Z,11.21
2023-05-14T02:41:11.843Z,11.17
2023-05-14T02:43:38.345Z,11.15
2023-05-14T02:46:04.977Z,11.13
2023-05-14T02:48:31.494Z,11.03
2023-05-14T02:50:58.033Z,11.10
2023-05-14T02:53:24.532Z,11.09
2023-05-14T02:55:51.083Z,11.04
2023-05-14T02:58:17.654Z,11.04
2023-05-14T03:00:44.095Z,11.00
2023-05-14T03:03:11.081Z,11.01
2023-05-14T03:05:38.088Z,10.97
2023-05-14T03:08:04.668Z,10.95
2023-05-14T03:10:32.802Z,10.93
2023-05-14T03:12:59.277Z,10.87
2023-05-14T03:15:25.766Z,10.91
2023-05-14T03:17:52.300Z,10.90
2023-05-14T03:20:18.846Z,10.89
2023-05-14T03:22:45.822Z,10.90
2023-05-14T03:25:13.859Z,10.87
2023-05-14T03:27:40.334Z,10.86
2023-05-14T03:30:07.470Z,10.75
2023-05-14T03:32:34.140Z,10.86
2023-05-14T03:35:00.672Z,10.85
2023-05-14T03:37:27.104Z,10.83
2023-05-14T03:39:53.517Z,10.83
2023-05-14T03:42:19.946Z,10.85
2023-05-14T03:44:47.421Z,10.87
2023-05-14T03:47:13.849Z,10.87
2023-05-14T03:49:40.344Z,10.85
2023-05-14T03:52:09.693Z,10.86
2023-05-14T03:54:36.218Z,10.87
2023-05-14T03:57:02.693Z,10.89
2023-05-14T03:59:29.124Z,10.71
2023-05-14T04:01:55.559Z,10.91
2023-05-14T04:04:21.991Z,10.91
2023-05-14T04:06:48.602Z,10.94
2023-05-14T04:09:15.286Z,10.94
2023-05-14T04:11:41.779Z,10.97
2023-05-14T04:14:08.276Z,10.98
2023-05-14T04:16:34.764Z,11.00
2023-05-14T04:19:03.744Z,11.01
2023-05-14T04:21:30.351Z,11.00
2023-05-14T04:23:56.791Z,11.04
2023-05-14T04:26:23.631Z,11.06
2023-05-14T04:28:50.086Z,11.07
2023-05-14T04:31:16.549Z,11.09
2023-05-14T04:33:43.012Z,11.10
2023-05-14T04:36:09.520Z,11.10
2023-05-14T04:38:35.943Z,11.09
2023-05-14T04:41:02.362Z,11.12
2023-05-14T04:43:28.781Z,11.13
2023-05-14T04:45:55.237Z,11.15
2023-05-14T04:48:22.417Z,11.17
2023-05-14T04:50:48.851Z,11.18
2023-05-14T04:53:15.403Z,11.16
2023-05-14T04:55:42.070Z,11.15
2023-05-14T04:58:08.493Z,11.17
2023-05-14T05:00:34.926Z,11.06
2023-05-14T05:03:01.513Z,11.22
2023-05-14T05:05:28.028Z,11.22
2023-05-14T05:07:54.773Z,11.20
2023-05-14T05:10:21.543Z,11.24
2023-05-14T05:12:48.245Z,11.25
2023-05-14T05:15:14.696Z,11.27
2023-05-14T05:17:41.226Z,11.22
2023-05-14T05:20:09.798Z,11.18
2023-05-14T05:22:36.738Z,11.16
2023-05-14T05:25:06.216Z,11.10
2023-05-14T05:27:35.597Z,11.14
2023-05-14T05:30:02.366Z,11.10
2023-05-14T05:32:28.844Z,11.12
2023-05-14T05:34:55.372Z,11.16
2023-05-14T05:37:21.821Z,11.20
2023-05-14T05:39:48.350Z,11.21
2023-05-14T05:42:14.978Z,11.21
2023-05-14T05:44:41.519Z,11.26
2023-05-14T05:47:07.975Z,11.24
2023-05-14T05:49:34.371Z,11.30
2023-05-14T05:52:00.873Z,11.29
2023-05-14T05:54:27.277Z,11.30
2023-05-14T05:56:53.682Z,11.30
2023-05-14T05:59:20.115Z,11.34
2023-05-14T06:01:46.550Z,11.38
2023-05-14T06:04:12.973Z,11.40
2023-05-14T06:06:39.407Z,11.36
2023-05-14T06:09:07.066Z,11.36
2023-05-14T06:11:33.617Z,11.34
2023-05-14T06:14:00.237Z,11.37
2023-05-14T06:16:26.702Z,11.49
2023-05-14T06:18:54.500Z,11.57
2023-05-14T06:21:21.271Z,11.63
2023-05-14T06:23:47.724Z,11.80
2023-05-14T06:26:14.207Z,11.88
2023-05-14T06:28:40.665Z,11.96
2023-05-14T06:31:07.113Z,12.05
2023-05-14T06:33:33.556Z,12.07
2023-05-14T06:36:01.072Z,12.13
2023-05-14T06:38:27.576Z,12.16
2023-05-14T06:40:54.040Z,12.22
2023-05-14T06:43:20.886Z,12.28
2023-05-14T06:45:51.574Z,12.32
2023-05-14T06:48:19.016Z,12.31
2023-05-14T06:50:47.216Z,12.34
2023-05-14T06:53:14.386Z,12.36
2023-05-14T06:55:41.011Z,12.41
2023-05-14T06:58:08.114Z,12.46
2023-05-14T07:00:34.716Z,12.51
2023-05-14T07:03:01.224Z,12.47
2023-05-14T07:05:27.697Z,12.52
2023-05-14T07:07:54.113Z,12.53
2023-05-14T07:10:20.783Z,12.62
2023-05-14T07:12:47.780Z,12.68
2023-05-14T07:15:14.199Z,12.72
2023-05-14T07:17:40.914Z,12.75
2023-05-14T07:20:07.970Z,12.80
2023-05-14T07:22:34.395Z,12.86
2023-05-14T07:25:00.841Z,12.87
2023-05-14T07:27:27.240Z,12.90
2023-05-14T07:29:53.656Z,12.79
2023-05-14T07:32:20.111Z,12.90
2023-05-14T07:34:46.635Z,12.87
2023-05-14T07:37:13.119Z,12.90
2023-05-14T07:39:41.584Z,12.95
2023-05-14T07:42:08.035Z,12.96
2023-05-14T07:44:34.491Z,13.01
2023-05-14T07:47:00.975Z,13.03
2023-05-14T07:49:27.456Z,13.03
2023-05-14T07:51:53.888Z,13.01
2023-05-14T07:54:20.322Z,12.97
2023-05-14T07:56:46.769Z,13.04
2023-05-14T07:59:13.202Z,13.09
2023-05-14T08:01:39.708Z,13.06
2023-05-14T08:04:06.382Z,13.01
2023-05-14T08:06:33.238Z,13.03
2023-05-14T08:08:59.699Z,12.98
2023-05-14T08:11:26.226Z,12.94
2023-05-14T08:13:52.753Z,12.93
2023-05-14T08:16:19.300Z,12.93
2023-05-14T08:18:45.843Z,13.00
2023-05-14T08:21:12.422Z,13.09
2023-05-14T08:23:38.899Z,13.14
2023-05-14T08:26:05.348Z,13.17
2023-05-14T08:28:31.898Z,13.16
2023-05-14T08:30:58.324Z,13.11
2023-05-14T08:33:24.836Z,13.05
2023-05-14T08:35:54.675Z,13.06
2023-05-14T08:38:21.104Z,13.08
2023-05-14T08:40:58.606Z,13.14
2023-05-14T08:43:35.849Z,13.26
2023-05-14T08:46:06.504Z,13.36
2023-05-14T08:48:34.347Z,13.52
2023-05-14T08:51:01.849Z,13.58
2023-05-14T08:53:28.535Z,13.57
2023-05-14T08:55:55.050Z,13.52
2023-05-14T08:58:21.610Z,13.52
2023-05-14T09:00:48.198Z,13.48
2023-05-14T09:03:15.968Z,13.38
2023-05-14T09:05:43.019Z,13.40
2023-05-14T09:08:09.451Z,13.47
2023-05-14T09:10:36.080Z,13.57
2023-05-14T09:13:02.506Z,13.66
2023-05-14T09:15:29.673Z,13.67
2023-05-14T09:17:56.692Z,13.64
2023-05-14T09:20:25.128Z,13.59
2023-05-14T09:22:54.810Z,13.54
2023-05-14T09:25:26.979Z,13.49
2023-05-14T09:27:55.696Z,13.48
2023-05-14T09:30:25.338Z,13.55
2023-05-14T09:32:54.724Z,13.71
2023-05-14T09:35:24.899Z,13.76
2023-05-14T09:37:53.864Z,13.88
2023-05-14T09:40:22.636Z,14.07
2023-05-14T09:42:49.787Z,14.19
2023-05-14T09:45:17.187Z,14.41
2023-05-14T09:47:45.014Z,14.59
2023-05-14T09:50:12.247Z,14.70
2023-05-14T09:52:39.243Z,14.74
2023-05-14T09:55:06.372Z,14.57
2023-05-14T09:57:33.547Z,14.67
2023-05-14T10:00:00.058Z,14.82
2023-05-14T10:02:41.070Z,15.04
2023-05-14T10:05:07.987Z,15.28
2023-05-14T10:07:40.080Z,15.44
2023-05-14T10:10:09.415Z,15.59
2023-05-14T10:12:39.312Z,15.60
2023-05-14T10:15:13.015Z,15.53
2023-05-14T10:17:41.007Z,15.44
2023-05-14T10:20:10.091Z,15.51
2023-05-14T10:22:36.696Z,15.60
2023-05-14T10:25:04.218Z,15.67
2023-05-14T10:27:31.270Z,15.72
2023-05-14T10:29:58.042Z,15.67
2023-05-14T10:32:26.429Z,15.62
2023-05-14T10:34:53.780Z,15.62
2023-05-14T10:37:25.913Z,15.67
2023-05-14T10:40:01.482Z,15.68
2023-05-14T10:42:32.193Z,15.76
2023-05-14T10:45:01.972Z,15.81
2023-05-14T10:47:29.393Z,15.88
2023-05-14T10:49:58.244Z,16.02
2023-05-14T10:52:25.598Z,16.11
2023-05-14T10:54:56.953Z,16.44
2023-05-14T10:57:27.184Z,16.73
2023-05-14T10:59:56.506Z,17.15
2023-05-14T11:02:34.715Z,17.48
2023-05-14T11:05:09.248Z,17.62
2023-05-14T11:07:43.743Z,17.80
2023-05-14T11:10:12.644Z,18.02
2023-05-14T11:12:42.084Z,18.49
2023-05-14T11:15:11.034Z,18.90
2023-05-14T11:17:40.033Z,19.18
2023-05-14T11:20:08.159Z,19.27
2023-05-14T11:22:35.797Z,19.14
2023-05-14T11:25:02.581Z,19.04
2023-05-14T11:27:30.059Z,19.05
2023-05-14T11:29:58.114Z,19.04
2023-05-14T11:32:24.750Z,19.28
2023-05-14T11:34:51.358Z,19.42
2023-05-14T11:37:18.261Z,19.47
2023-05-14T11:40:03.008Z,19.28
2023-05-14T11:42:29.462Z,19.02
2023-05-14T11:44:55.879Z,18.90
2023-05-14T11:47:23.008Z,18.75
2023-05-14T11:49:49.735Z,18.58
2023-05-14T11:52:19.543Z,18.37
2023-05-14T11:54:46.992Z,18.16
2023-05-14T11:57:16.298Z,18.06
2023-05-14T11:59:43.065Z,17.94
2023-05-14T12:02:13.840Z,17.87
2023-05-14T12:04:42.221Z,17.63
2023-05-14T12:07:13.368Z,17.43
2023-05-14T12:09:49.790Z,17.27
2023-05-14T12:12:23.048Z,17.06
2023-05-14T12:14:50.598Z,16.96
2023-05-14T12:17:19.689Z,16.80
2023-05-14T12:19:48.266Z,16.74
2023-05-14T12:22:17.370Z,16.66
2023-05-14T12:24:52.252Z,16.59
2023-05-14T12:27:23.465Z,16.63
2023-05-14T12:29:53.404Z,16.61
2023-05-14T12:32:20.294Z,16.58
2023-05-14T12:34:46.833Z,16.51
2023-05-14T12:37:13.256Z,16.38
2023-05-14T12:39:39.744Z,16.26
2023-05-14T12:42:06.433Z,16.13
2023-05-14T12:44:32.874Z,16.08
2023-05-14T12:46:59.420Z,16.04
2023-05-14T12:49:25.976Z,15.95
2023-05-14T12:52:03.248Z,15.90
2023-05-14T12:54:42.840Z,15.83
2023-05-14T12:57:09.524Z,15.81
2023-05-14T12:59:36.163Z,15.77
2023-05-14T13:02:02.614Z,15.73
2023-05-14T13:04:29.173Z,15.74
2023-05-14T13:06:55.934Z,15.76
2023-05-14T13:09:22.371Z,15.77
2023-05-14T13:11:48.830Z,15.75
2023-05-14T13:14:15.582Z,15.88
2023-05-14T13:16:42.360Z,16.11
2023-05-14T13:19:09.075Z,16.38
2023-05-14T13:21:35.651Z,16.63
2023-05-14T13:24:02.102Z,16.87
2023-05-14T13:26:28.743Z,17.08
2023-05-14T13:28:55.263Z,17.33
2023-05-14T13:31:21.766Z,17.81
2023-05-14T13:33:48.236Z,18.20
2023-05-14T13:36:16.135Z,18.34
2023-05-14T13:38:42.648Z,18.61
2023-05-14T13:41:09.112Z,18.97
2023-05-14T13:43:35.930Z,19.18
2023-05-14T13:46:03.725Z,19.63
2023-05-14T13:48:31.097Z,19.50
2023-05-14T13:50:57.906Z,19.08
2023-05-14T13:53:25.152Z,18.70
2023-05-14T13:55:58.001Z,18.42
2023-05-14T13:58:25.470Z,18.17
2023-05-14T14:00:52.695Z,18.06
2023-05-14T14:03:19.314Z,17.93
2023-05-14T14:05:45.832Z,17.85
2023-05-14T14:08:22.782Z,17.81
2023-05-14T14:10:50.796Z,17.90
2023-05-14T14:13:17.219Z,18.16
2023-05-14T14:15:44.288Z,18.13
2023-05-14T14:18:10.817Z,18.09
2023-05-14T14:20:37.363Z,18.07
2023-05-14T14:23:03.874Z,18.04
2023-05-14T14:25:30.300Z,17.94
2023-05-14T14:27:56.835Z,17.80
2023-05-14T14:30:23.534Z,17.53
2023-05-14T14:32:50.459Z,17.41
2023-05-14T14:35:18.879Z,17.41
2023-05-14T14:37:49.107Z,17.41
2023-05-14T14:40:16.745Z,17.35
2023-05-14T14:42:44.198Z,17.26
2023-05-14T14:45:12.068Z,17.23
2023-05-14T14:47:38.758Z,17.18
2023-05-14T14:50:06.174Z,17.10
2023-05-14T14:52:32.777Z,17.42
2023-05-14T14:54:59.238Z,18.25
2023-05-14T14:57:26.936Z,18.90
2023-05-14T14:59:53.595Z,19.23
2023-05-14T15:02:20.235Z,19.23
2023-05-14T15:04:46.838Z,19.54
2023-05-14T15:07:13.645Z,19.60
2023-05-14T15:09:40.051Z,19.23
2023-05-14T15:12:07.994Z,19.02
2023-05-14T15:14:35.084Z,18.79
2023-05-14T15:17:01.679Z,18.52
2023-05-14T15:19:29.406Z,18.65
2023-05-14T15:21:55.890Z,18.63
2023-05-14T15:24:23.990Z,18.49
2023-05-14T15:26:52.048Z,18.66
2023-05-14T15:29:19.946Z,19.13
2023-05-14T15:31:46.710Z,19.54
2023-05-14T15:34:13.332Z,19.81
2023-05-14T15:36:39.824Z,20.12
2023-05-14T15:39:06.295Z,20.42
2023-05-14T15:41:34.358Z,20.73
2023-05-14T15:44:00.877Z,20.98
2023-05-14T15:46:27.412Z,21.15
2023-05-14T15:48:53.970Z,21.22
2023-05-14T15:51:20.535Z,21.17
2023-05-14T15:53:47.024Z,21.28
2023-05-14T15:56:13.515Z,21.33
2023-05-14T15:58:39.987Z,21.43
2023-05-14T16:01:06.411Z,21.32
2023-05-14T16:03:32.895Z,21.09
2023-05-14T16:05:59.651Z,21.07
2023-05-14T16:08:26.093Z,21.14
2023-05-14T16:10:52.544Z,21.10
2023-05-14T16:13:19.397Z,21.03
2023-05-14T16:15:45.871Z,21.02
2023-05-14T16:18:12.484Z,20.97
2023-05-14T16:20:39.135Z,21.06
2023-05-14T16:23:05.583Z,21.12
2023-05-14T16:25:32.089Z,21.13
2023-05-14T16:27:58.571Z,21.17
2023-05-14T16:30:25.185Z,21.15
2023-05-14T16:32:51.860Z,21.12
2023-05-14T16:35:18.344Z,21.12
2023-05-14T16:37:44.850Z,21.14
2023-05-14T16:40:12.006Z,21.17
2023-05-14T16:42:39.063Z,21.13
2023-05-14T16:45:06.302Z,21.09
2023-05-14T16:47:32.811Z,20.97
2023-05-14T16:49:59.303Z,21.09
2023-05-14T16:52:25.722Z,21.26
2023-05-14T16:54:52.137Z,21.28
2023-05-14T16:57:18.584Z,21.04
2023-05-14T16:59:45.038Z,20.72
2023-05-14T17:02:11.440Z,20.58
2023-05-14T17:04:40.902Z,20.56
2023-05-14T17:07:07.790Z,20.53
2023-05-14T17:09:34.228Z,20.50
2023-05-14T17:12:00.708Z,20.46
2023-05-14T17:14:27.340Z,20.45
2023-05-14T17:16:54.385Z,20.38
2023-05-14T17:19:21.026Z,20.40
2023-05-14T17:21:47.893Z,20.42
2023-05-14T17:24:14.477Z,20.32
2023-05-14T17:26:41.050Z,20.36
2023-05-14T17:29:07.452Z,20.45
2023-05-14T17:31:33.915Z,20.52
2023-05-14T17:34:00.770Z,20.60
2023-05-14T17:36:28.609Z,20.73
2023-05-14T17:38:55.243Z,21.17
2023-05-14T17:41:21.679Z,22.04
2023-05-14T17:43:48.146Z,23.54
2023-05-14T17:46:14.970Z,25.22
2023-05-14T17:48:43.787Z,26.40
2023-05-14T17:51:10.377Z,26.92
2023-05-14T17:53:37.559Z,26.82
2023-05-14T17:56:04.854Z,26.24
2023-05-14T17:58:31.335Z,25.10
2023-05-14T18:00:58.206Z,23.46
2023-05-14T18:03:24.880Z,21.98
2023-05-14T18:05:51.941Z,20.73
2023-05-14T18:08:18.402Z,19.86
2023-05-14T18:10:44.910Z,19.12
2023-05-14T18:13:11.314Z,18.51
2023-05-14T18:15:37.879Z,17.93
2023-05-14T18:18:04.698Z,17.61
2023-05-14T18:20:32.807Z,17.32
2023-05-14T18:23:00.608Z,17.12
2023-05-14T18:25:27.150Z,16.90
2023-05-14T18:27:54.163Z,16.70
2023-05-14T18:30:20.763Z,16.52
2023-05-14T18:32:47.258Z,16.37
2023-05-14T18:35:14.616Z,16.30
2023-05-14T18:37:41.191Z,16.21
2023-05-14T18:40:08.702Z,16.09
2023-05-14T18:42:35.313Z,15.96
2023-05-14T18:45:02.206Z,15.69
2023-05-14T18:47:28.902Z,15.48
2023-05-14T18:49:57.987Z,15.24
2023-05-14T18:52:24.725Z,14.97
2023-05-14T18:54:51.196Z,14.75
2023-05-14T18:57:17.807Z,14.58
2023-05-14T18:59:44.313Z,14.41
2023-05-14T19:02:10.865Z,14.27
2023-05-14T19:04:50.585Z,14.09
2023-05-14T19:07:18.746Z,13.91
2023-05-14T19:09:45.608Z,13.75
2023-05-14T19:12:12.540Z,13.69
2023-05-14T19:14:39.010Z,13.57
2023-05-14T19:17:05.760Z,13.44
2023-05-14T19:19:32.544Z,13.41
2023-05-14T19:21:59.079Z,13.34
2023-05-14T19:24:25.829Z,13.36
2023-05-14T19:26:52.498Z,13.36
2023-05-14T19:29:18.958Z,13.37
2023-05-14T19:31:45.370Z,13.36
2023-05-14T19:34:11.807Z,13.37
2023-05-14T19:36:38.327Z,13.32
2023-05-14T19:39:05.145Z,13.38
2023-05-14T19:41:31.609Z,13.40
2023-05-14T19:43:58.129Z,13.39
2023-05-14T19:46:24.683Z,13.40
2023-05-14T19:48:51.164Z,13.41
2023-05-14T19:51:17.649Z,13.38
2023-05-14T19:53:44.090Z,13.31
2023-05-14T19:56:10.904Z,13.30
2023-05-14T19:58:37.471Z,13.30
2023-05-14T20:01:04.331Z,13.30
2023-05-14T20:03:30.923Z,13.23
2023-05-14T20:05:57.959Z,13.18
2023-05-14T20:08:24.921Z,13.13
2023-05-14T20:10:51.433Z,13.16
2023-05-14T20:13:17.867Z,13.16
2023-05-14T20:15:44.398Z,13.15
2023-05-14T20:18:10.831Z,13.14
2023-05-14T20:20:37.412Z,13.16
2023-05-14T20:23:03.814Z,13.13
2023-05-14T20:25:32.762Z,13.13
2023-05-14T20:28:00.360Z,13.11
2023-05-14T20:30:27.740Z,13.09
2023-05-14T20:32:54.273Z,13.06
2023-05-14T20:35:20.777Z,13.01
2023-05-14T20:37:47.356Z,13.00
2023-05-14T20:40:13.941Z,12.99
2023-05-14T20:42:40.658Z,12.98
2023-05-14T20:45:07.794Z,12.96
2023-05-14T20:47:35.672Z,12.94
2023-05-14T20:50:02.249Z,12.91
2023-05-14T20:52:28.819Z,12.93
2023-05-14T20:54:55.265Z,12.95
2023-05-14T20:57:22.456Z,12.93
2023-05-14T20:59:49.075Z,12.92
2023-05-14T21:02:15.875Z,12.89
2023-05-14T21:04:42.737Z,12.87
2023-05-14T21:07:09.370Z,12.88
2023-05-14T21:09:35.829Z,12.87
2023-05-14T21:12:02.287Z,12.82
2023-05-14T21:14:28.754Z,12.84
2023-05-14T21:16:55.340Z,12.84
2023-05-14T21:19:22.840Z,12.87
2023-05-14T21:21:49.442Z,12.90
2023-05-14T21:24:16.746Z,12.95
2023-05-14T21:26:43.253Z,12.97
2023-05-14T21:29:09.723Z,13.00
2023-05-14T21:31:36.203Z,13.01
2023-05-14T21:34:02.820Z,13.02
2023-05-14T21:36:29.306Z,13.02
2023-05-14T21:38:55.773Z,13.02
2023-05-14T21:41:23.267Z,13.01
2023-05-14T21:43:49.740Z,13.00
2023-05-14T21:46:16.407Z,13.01
2023-05-14T21:48:43.007Z,13.01
2023-05-14T21:51:09.550Z,13.02
2023-05-14T21:53:36.003Z,13.03
2023-05-14T21:56:02.441Z,13.02
2023-05-14T21:58:28.923Z,13.02
2023-05-14T22:00:55.416Z,13.03
2023-05-14T22:03:22.036Z,13.05
2023-05-14T22:05:49.193Z,13.06
2023-05-14T22:08:17.525Z,13.05
2023-05-14T22:10:44.414Z,13.05
2023-05-14T22:13:11.024Z,13.07
2023-05-14T22:15:37.941Z,13.08
2023-05-14T22:18:04.708Z,13.10
2023-05-14T22:20:31.369Z,13.11
2023-05-14T22:22:57.793Z,13.10
2023-05-14T22:25:24.422Z,13.10
2023-05-14T22:27:51.097Z,13.08
2023-05-14T22:30:17.521Z,13.06
2023-05-14T22:32:44.030Z,13.02
2023-05-14T22:35:11.229Z,12.97
2023-05-14T22:37:37.686Z,12.93
2023-05-14T22:40:05.184Z,12.88
2023-05-14T22:42:31.641Z,12.83
2023-05-14T22:44:58.082Z,12.74
2023-05-14T22:47:25.801Z,12.69
2023-05-14T22:49:52.676Z,12.67
2023-05-14T22:52:19.174Z,12.67
2023-05-14T22:54:46.598Z,12.66
2023-05-14T22:57:13.131Z,12.64
2023-05-14T22:59:39.700Z,12.60
2023-05-14T23:02:06.799Z,12.52
2023-05-14T23:04:33.561Z,12.44
2023-05-14T23:07:00.063Z,12.40
2023-05-14T23:09:26.542Z,12.34
2023-05-14T23:11:53.067Z,12.31
2023-05-14T23:14:19.649Z,12.31
2023-05-14T23:16:46.230Z,12.31
2023-05-14T23:19:13.002Z,12.33
2023-05-14T23:21:39.609Z,12.35
2023-05-14T23:24:06.354Z,12.38
2023-05-14T23:26:32.916Z,12.40
2023-05-14T23:28:59.353Z,12.35
2023-05-14T23:31:25.869Z,12.27
2023-05-14T23:33:52.280Z,12.20
2023-05-14T23:36:18.791Z,12.22
2023-05-14T23:38:45.575Z,12.20
2023-05-14T23:41:12.022Z,12.21
2023-05-14T23:43:38.474Z,12.19
2023-05-14T23:46:05.209Z,12.19
2023-05-14T23:48:31.898Z,12.18
2023-05-14T23:50:58.339Z,12.19
2023-05-14T23:53:24.901Z,12.18
2023-05-14T23:55:51.415Z,12.18
2023-05-14T23:58:18.028Z,12.16
